Time;durP1;ratioP1;P1;durP2;ratioP2;P2;SDS_P1;SDS_P2;PMS_P1;PMS_P2;Temp;Humidity;BMP_temperature;BMP_pressure;BME280_temperature;BME280_humidity;BME280_pressure;Samples;Min_cycle;Max_cycle;Signal;HPM_P1;HPM_P2
2022/05/18 00:02:23;;;;;;;8.25;1.67;;;;;;;7.46;100.00;100266.31;5008906;28;20517;-87
2022/05/18 00:04:49;;;;;;;10.68;1.73;;;;;;;7.31;100.00;100254.63;5009604;28;20034;-87
2022/05/18 00:07:15;;;;;;;5.88;1.77;;;;;;;7.23;100.00;100263.50;5012832;28;20067;-87
2022/05/18 00:09:41;;;;;;;5.88;2.08;;;;;;;7.20;100.00;100258.47;4987594;28;20030;-88
2022/05/18 00:12:07;;;;;;;5.53;1.33;;;;;;;7.09;100.00;100259.59;4974686;28;20033;-87
2022/05/18 00:14:34;;;;;;;10.13;1.90;;;;;;;7.15;100.00;100263.47;5015511;28;20807;-87
2022/05/18 00:17:03;;;;;;;7.97;2.35;;;;;;;7.15;100.00;100287.56;4990516;28;20038;-87
2022/05/18 00:19:32;;;;;;;12.23;1.90;;;;;;;7.15;100.00;100287.56;4988993;28;20050;-87
2022/05/18 00:21:58;;;;;;;6.05;1.77;;;;;;;7.13;100.00;100277.00;5007832;28;20037;-91
2022/05/18 00:24:24;;;;;;;3.80;1.15;;;;;;;7.32;100.00;100294.56;5017945;28;20085;-90
2022/05/18 00:26:49;;;;;;;3.50;1.25;;;;;;;7.52;100.00;100288.91;4987267;28;20041;-89
2022/05/18 00:29:16;;;;;;;13.50;2.72;;;;;;;7.42;100.00;100260.47;5002121;28;20034;-86
2022/05/18 00:31:41;;;;;;;1.65;1.40;;;;;;;7.78;100.00;100300.28;5009428;28;20017;-89
2022/05/18 00:34:08;;;;;;;6.60;1.92;;;;;;;7.88;100.00;100308.94;5020130;28;20122;-87
2022/05/18 00:36:34;;;;;;;11.63;2.45;;;;;;;7.88;100.00;100303.56;5021122;28;20021;-89
2022/05/18 00:39:00;;;;;;;16.58;1.45;;;;;;;7.84;100.00;100288.88;4988668;28;20037;-86
2022/05/18 00:41:27;;;;;;;8.60;1.83;;;;;;;7.78;100.00;100304.75;5018049;28;20104;-85
2022/05/18 00:43:54;;;;;;;13.45;2.10;;;;;;;7.70;100.00;100313.66;4990784;28;20037;-90
2022/05/18 00:46:19;;;;;;;8.93;2.53;;;;;;;7.66;100.00;100309.63;5011960;28;20036;-88
2022/05/18 00:48:45;;;;;;;10.43;2.22;;;;;;;7.66;100.00;100321.16;4991421;28;20026;-87
2022/05/18 00:51:24;;;;;;;12.15;2.15;;;;;;;7.66;100.00;100328.34;4996754;28;20022;-90
2022/05/18 00:53:57;;;;;;;19.23;2.40;;;;;;;7.68;100.00;100318.34;5008497;28;20526;-91
2022/05/18 00:56:32;;;;;;;16.52;2.53;;;;;;;7.86;100.00;100326.19;5022201;28;20034;-88
2022/05/18 00:59:07;;;;;;;8.50;1.88;;;;;;;7.96;100.00;100339.38;4999224;28;20175;-90
2022/05/18 01:01:38;;;;;;;10.88;1.77;;;;;;;8.05;100.00;100338.38;4988025;28;20475;-86
2022/05/18 01:04:06;;;;;;;6.78;1.50;;;;;;;7.89;100.00;100325.84;5002094;28;20536;-89
2022/05/18 01:06:37;;;;;;;2.58;1.40;;;;;;;7.81;100.00;100323.19;5015999;28;20093;-86
2022/05/18 01:09:11;;;;;;;9.32;2.17;;;;;;;7.85;100.00;100346.75;4982628;28;20034;-87
2022/05/18 01:11:40;;;;;;;7.47;1.60;;;;;;;7.68;100.00;100339.75;5019262;28;20053;-86
2022/05/18 01:14:19;;;;;;;16.75;2.13;;;;;;;7.53;100.00;100346.75;5001223;28;20037;-87
2022/05/18 01:16:46;;;;;;;10.93;1.67;;;;;;;7.32;100.00;100345.38;5001304;28;20085;-87
2022/05/18 01:19:44;;;;;;;8.85;1.63;;;;;;;7.36;100.00;100362.78;4996355;28;20034;-88
2022/05/18 01:22:20;;;;;;;8.52;1.13;;;;;;;7.46;100.00;100363.47;5019258;28;20296;-86
2022/05/18 01:25:14;;;;;;;12.80;2.13;;;;;;;7.52;100.00;100369.16;4982295;28;20112;-86
2022/05/18 01:27:40;;;;;;;12.68;2.78;;;;;;;7.29;100.00;100351.06;5001439;28;20502;-87
2022/05/18 01:30:07;;;;;;;11.13;2.38;;;;;;;7.28;100.00;100373.47;5023575;28;20025;-85
2022/05/18 01:32:44;;;;;;;8.43;2.10;;;;;;;7.25;100.00;100373.78;5004696;28;20057;-88
2022/05/18 01:35:12;;;;;;;2.97;1.73;;;;;;;7.22;100.00;100379.44;4991935;28;20049;-86
2022/05/18 01:37:37;;;;;;;14.18;2.95;;;;;;;7.17;100.00;100379.97;5015077;28;20030;-85
2022/05/18 01:40:14;;;;;;;11.57;1.90;;;;;;;7.11;100.00;100372.56;5007121;28;20083;-89
2022/05/18 01:42:46;;;;;;;10.35;2.05;;;;;;;7.12;100.00;100373.41;4986312;28;20041;-85
2022/05/18 01:45:12;;;;;;;16.63;1.75;;;;;;;7.14;100.00;100376.75;4999245;28;20159;-89
2022/05/18 01:47:39;;;;;;;4.57;1.10;;;;;;;7.10;100.00;100370.91;5020764;28;20434;-87
2022/05/18 01:50:11;;;;;;;8.77;2.20;;;;;;;7.02;100.00;100365.53;5022544;28;20104;-88
2022/05/18 01:52:37;;;;;;;3.20;1.08;;;;;;;7.05;100.00;100370.56;5003994;28;20050;-87
2022/05/18 01:55:04;;;;;;;15.10;2.65;;;;;;;7.07;100.00;100378.44;4989168;28;20634;-89
2022/05/18 01:57:30;;;;;;;15.82;2.30;;;;;;;7.05;100.00;100387.44;5008946;28;20171;-87
2022/05/18 01:59:56;;;;;;;8.95;1.95;;;;;;;7.02;100.00;100387.75;5000940;28;20112;-88
2022/05/18 02:02:22;;;;;;;8.30;1.40;;;;;;;6.98;100.00;100383.72;4981981;28;20056;-84
2022/05/18 02:04:48;;;;;;;6.68;1.75;;;;;;;6.98;100.00;100397.09;5020068;28;20052;-86
2022/05/18 02:07:14;;;;;;;11.23;1.63;;;;;;;6.97;100.00;100382.06;5005861;28;20113;-86
2022/05/18 02:09:40;;;;;;;13.20;1.83;;;;;;;6.89;100.00;100386.53;4989963;28;20371;-87
2022/05/18 02:12:08;;;;;;;13.35;2.53;;;;;;;6.79;100.00;100384.81;5001723;28;20033;-90
2022/05/18 02:14:33;;;;;;;20.50;2.80;;;;;;;6.77;100.00;100381.50;5004213;28;20029;-87
2022/05/18 02:16:59;;;;;;;11.15;1.75;;;;;;;6.64;100.00;100372.22;4983870;28;20087;-87
2022/05/18 02:19:25;;;;;;;12.02;1.77;;;;;;;6.54;100.00;100375.88;5005773;28;20118;-89
2022/05/18 02:21:50;;;;;;;11.73;1.98;;;;;;;6.74;100.00;100386.31;5004845;28;20454;-86
2022/05/18 02:24:16;;;;;;;7.32;1.20;;;;;;;6.85;100.00;100396.69;5002398;28;20041;-84
2022/05/18 02:26:42;;;;;;;6.28;1.92;;;;;;;6.92;100.00;100397.75;4993423;28;20176;-86
2022/05/18 02:29:08;;;;;;;11.25;2.63;;;;;;;6.88;100.00;100380.38;5017094;28;20041;-88
2022/05/18 02:31:34;;;;;;;13.00;2.80;;;;;;;6.89;100.00;100392.72;4976217;28;20026;-86
2022/05/18 02:33:59;;;;;;;8.68;1.85;;;;;;;6.90;100.00;100397.06;4994684;28;20383;-85
2022/05/18 02:36:26;;;;;;;13.48;2.17;;;;;;;6.93;100.00;100399.44;5023968;28;20022;-86
2022/05/18 02:38:52;;;;;;;9.43;2.00;;;;;;;6.92;100.00;100400.41;5004495;28;20022;-88
2022/05/18 02:41:18;;;;;;;13.23;2.38;;;;;;;6.82;100.00;100399.69;4979187;28;20042;-84
2022/05/18 02:43:44;;;;;;;7.55;1.92;;;;;;;6.82;100.00;100402.38;5024701;28;20053;-84
2022/05/18 02:46:14;;;;;;;11.30;2.35;;;;;;;6.77;100.00;100408.22;4976584;28;20454;-87
2022/05/18 02:48:40;;;;;;;8.20;1.55;;;;;;;6.83;100.00;100414.75;5005826;28;20057;-87
2022/05/18 02:51:07;;;;;;;12.35;2.40;;;;;;;6.69;100.00;100416.16;5002523;28;20092;-88
2022/05/18 02:53:35;;;;;;;19.23;2.13;;;;;;;6.46;100.00;100401.69;4989331;28;20032;-86
2022/05/18 02:56:08;;;;;;;15.65;2.28;;;;;;;6.47;100.00;100414.88;5010623;28;20033;-85
2022/05/18 02:58:35;;;;;;;10.60;1.90;;;;;;;6.48;100.00;100421.88;5006695;28;20562;-87
2022/05/18 03:01:01;;;;;;;12.57;2.58;;;;;;;6.57;100.00;100433.47;4990544;28;20045;-88
2022/05/18 03:03:27;;;;;;;12.15;2.50;;;;;;;6.58;100.00;100427.13;5004877;28;20049;-85
2022/05/18 03:05:53;;;;;;;8.23;1.70;;;;;;;6.53;100.00;100432.94;5015023;28;20045;-84
2022/05/18 03:08:19;;;;;;;10.00;1.75;;;;;;;6.43;100.00;100442.91;5001890;28;20520;-86
2022/05/18 03:10:44;;;;;;;27.02;2.50;;;;;;;6.34;100.00;100451.84;5012672;28;20049;-87
2022/05/18 03:13:10;;;;;;;8.00;1.73;;;;;;;6.28;100.00;100453.31;5009168;28;20025;-87
2022/05/18 03:15:36;;;;;;;8.00;1.90;;;;;;;6.36;100.00;100452.53;5008442;28;20029;-86
2022/05/18 03:18:05;;;;;;;10.80;1.98;;;;;;;6.43;100.00;100461.63;5044066;28;20046;-85
2022/05/18 03:23:33;;;;;;;16.45;2.50;;;;;;;6.29;100.00;100464.81;5044708;28;20166;-84
2022/05/18 03:26:09;;;;;;;10.48;2.08;;;;;;;6.22;100.00;100467.28;5029464;28;20117;-84
2022/05/18 03:28:36;;;;;;;17.08;2.88;;;;;;;6.20;100.00;100463.94;5031816;28;20025;-84
2022/05/18 03:31:03;;;;;;;14.38;2.67;;;;;;;6.25;100.00;100453.63;5020066;28;20057;-87
2022/05/18 03:33:37;;;;;;;9.07;2.40;;;;;;;6.35;100.00;100457.03;4981246;28;20475;-88
2022/05/18 03:36:05;;;;;;;16.42;3.03;;;;;;;6.53;100.00;100473.00;5028904;28;20096;-85
2022/05/18 03:38:31;;;;;;;11.05;2.00;;;;;;;6.53;100.00;100448.97;5005942;28;20085;-86
2022/05/18 03:40:57;;;;;;;17.75;2.85;;;;;;;6.76;100.00;100476.00;5014649;28;20484;-91
2022/05/18 03:43:22;;;;;;;10.10;2.25;;;;;;;6.81;100.00;100475.53;5024004;28;20048;-88
2022/05/18 03:45:48;;;;;;;26.23;4.32;;;;;;;6.77;100.00;100459.00;5030818;28;20037;-86
2022/05/18 03:48:15;;;;;;;15.82;2.53;;;;;;;6.86;100.00;100467.88;5007486;28;20028;-89
2022/05/18 03:50:42;;;;;;;22.30;2.45;;;;;;;6.72;100.00;100469.31;5008309;28;20065;-90
2022/05/18 03:53:09;;;;;;;9.68;2.58;;;;;;;6.54;100.00;100464.03;5019663;28;20385;-86
2022/05/18 03:55:36;;;;;;;11.27;1.85;;;;;;;6.49;100.00;100473.50;5024816;28;20056;-86
2022/05/18 03:58:02;;;;;;;12.02;2.47;;;;;;;6.43;100.00;100477.63;5006048;28;20038;-87
2022/05/18 04:00:28;;;;;;;15.93;2.28;;;;;;;6.23;100.00;100460.94;4986754;28;20041;-87
2022/05/18 04:02:53;;;;;;;18.05;2.40;;;;;;;6.22;100.00;100464.63;4989112;28;20020;-86
2022/05/18 04:05:20;;;;;;;11.60;1.73;;;;;;;6.43;100.00;100471.44;5009885;28;20034;-89
2022/05/18 04:07:50;;;;;;;16.55;2.53;;;;;;;6.66;100.00;100471.75;5001285;28;20028;-90
2022/05/18 04:10:16;;;;;;;11.32;2.30;;;;;;;6.95;100.00;100482.13;5015274;28;20095;-89
2022/05/18 04:12:43;;;;;;;13.98;2.70;;;;;;;7.18;100.00;100485.06;5007111;28;20037;-90
2022/05/18 04:15:10;;;;;;;25.38;4.03;;;;;;;7.37;100.00;100487.47;4992982;28;20026;-89
2022/05/18 04:17:36;;;;;;;17.92;2.83;;;;;;;7.44;100.00;100488.53;4992694;28;20026;-89
2022/05/18 04:20:06;;;;;;;21.50;3.15;;;;;;;7.51;100.00;100483.34;5009246;28;20033;-86
2022/05/18 04:22:32;;;;;;;13.57;2.08;;;;;;;7.60;100.00;100485.06;5005764;28;20022;-86
2022/05/18 04:25:01;;;;;;;15.70;2.30;;;;;;;7.66;100.00;100489.75;5009430;28;20476;-86
2022/05/18 04:27:28;;;;;;;14.45;2.83;;;;;;;7.60;100.00;100485.06;4994649;28;20379;-86
2022/05/18 04:29:54;;;;;;;18.45;3.50;;;;;;;7.64;100.00;100496.25;4988535;28;20061;-88
2022/05/18 04:32:21;;;;;;;16.52;3.35;;;;;;;7.62;100.00;100493.78;5002943;28;20025;-82
2022/05/18 04:34:48;;;;;;;9.20;2.38;;;;;;;7.63;100.00;100490.09;5007034;28;20200;-86
2022/05/18 04:37:15;;;;;;;29.20;3.30;;;;;;;7.75;100.00;100495.13;5016674;28;20022;-88
2022/05/18 04:39:40;;;;;;;24.67;3.20;;;;;;;7.87;100.00;100508.03;4997004;28;22227;-88
2022/05/18 04:42:06;;;;;;;17.20;3.40;;;;;;;7.86;100.00;100498.34;5001267;28;20045;-85
2022/05/18 04:44:32;;;;;;;21.70;2.85;;;;;;;7.93;100.00;100506.53;5006873;28;20025;-87
2022/05/18 04:46:58;;;;;;;15.98;2.88;;;;;;;7.90;100.00;100518.41;5004217;28;20042;-88
2022/05/18 04:49:25;;;;;;;11.80;2.88;;;;;;;7.85;100.00;100520.75;5023492;28;20033;-86
2022/05/18 04:51:51;;;;;;;30.58;4.07;;;;;;;7.69;100.00;100504.66;4988661;28;20038;-82
2022/05/18 04:54:17;;;;;;;25.00;2.80;;;;;;;7.63;100.00;100521.38;4999850;28;20076;-84
2022/05/18 04:56:42;;;;;;;15.98;2.08;;;;;;;7.51;100.00;100525.31;5006886;28;20034;-87
2022/05/18 04:59:08;;;;;;;12.48;2.38;;;;;;;7.35;100.00;100523.41;5005702;28;20164;-87
2022/05/18 05:01:34;;;;;;;14.82;2.15;;;;;;;7.47;100.00;100528.31;5023894;28;20029;-85
2022/05/18 05:04:00;;;;;;;17.55;3.00;;;;;;;7.49;100.00;100528.19;4980415;28;20112;-86
2022/05/18 05:06:26;;;;;;;8.50;1.92;;;;;;;7.43;100.00;100532.31;4998472;28;20037;-86
2022/05/18 05:08:52;;;;;;;17.30;2.42;;;;;;;7.45;100.00;100534.84;4985062;28;20484;-86
2022/05/18 05:11:18;;;;;;;21.52;4.03;;;;;;;7.55;100.00;100538.22;4981560;28;20042;-88
2022/05/18 05:13:44;;;;;;;15.10;2.70;;;;;;;7.79;100.00;100534.78;5008245;28;20026;-86
2022/05/18 05:16:11;;;;;;;30.15;2.97;;;;;;;8.14;100.00;100546.22;4977926;28;20037;-88
2022/05/18 05:18:37;;;;;;;16.65;4.90;;;;;;;8.58;100.00;100552.16;5001073;28;20026;-89
2022/05/18 05:21:03;;;;;;;16.90;3.25;;;;;;;9.07;100.00;100566.50;4992983;28;20046;-83
2022/05/18 05:23:29;;;;;;;19.67;3.20;;;;;;;9.48;100.00;100561.03;4997623;28;20037;-89
2022/05/18 05:25:56;;;;;;;14.73;2.38;;;;;;;9.56;100.00;100535.00;4998233;28;20264;-82
2022/05/18 05:28:22;;;;;;;15.38;3.45;;;;;;;9.57;100.00;100562.69;4976748;28;20053;-84
2022/05/18 05:30:48;;;;;;;18.67;3.30;;;;;;;9.29;100.00;100551.53;4995739;28;20030;-85
2022/05/18 05:33:14;;;;;;;25.75;3.90;;;;;;;9.45;100.00;100564.91;5010221;28;20044;-87
2022/05/18 05:35:41;;;;;;;26.35;3.95;;;;;;;9.59;100.00;100558.81;5004062;28;20030;-88
2022/05/18 05:38:10;;;;;;;20.52;3.72;;;;;;;9.63;100.00;100560.16;4985629;28;20997;-87
2022/05/18 05:40:37;;;;;;;21.25;3.03;;;;;;;9.80;100.00;100568.94;5010165;28;20282;-88
2022/05/18 05:43:10;;;;;;;10.95;2.92;;;;;;;10.41;100.00;100562.91;5013769;28;20484;-87
2022/05/18 05:45:36;;;;;;;21.55;3.35;;;;;;;11.07;100.00;100557.78;5005364;28;20018;-85
2022/05/18 05:48:08;;;;;;;19.23;3.35;;;;;;;11.56;100.00;100551.81;4999899;28;20048;-87
2022/05/18 05:50:34;;;;;;;16.95;2.88;;;;;;;12.17;100.00;100573.09;5002326;28;20036;-89
2022/05/18 05:53:03;;;;;;;16.10;2.67;;;;;;;12.57;97.59;100579.75;5006418;28;20034;-87
2022/05/18 05:55:29;;;;;;;21.20;2.80;;;;;;;12.93;96.02;100584.19;4988280;28;20484;-86
2022/05/18 05:57:55;;;;;;;18.67;3.33;;;;;;;13.23;94.65;100584.00;5007403;28;20200;-86
2022/05/18 06:00:24;;;;;;;22.05;4.90;;;;;;;13.48;92.82;100589.81;4988922;28;20390;-87
2022/05/18 06:02:50;;;;;;;9.48;1.85;;;;;;;13.70;91.71;100577.03;4990507;28;20050;-86
2022/05/18 06:05:17;;;;;;;16.42;3.33;;;;;;;13.90;89.39;100579.84;4987022;28;20323;-87
2022/05/18 06:07:43;;;;;;;20.48;3.65;;;;;;;14.07;88.88;100590.06;5022892;28;20026;-87
2022/05/18 06:10:10;;;;;;;16.63;2.95;;;;;;;14.27;87.54;100581.19;5020521;28;20034;-87
2022/05/18 06:12:37;;;;;;;19.85;2.60;;;;;;;14.52;87.61;100589.56;5004230;28;20088;-85
2022/05/18 06:15:04;;;;;;;11.63;2.78;;;;;;;14.67;86.36;100586.69;5004290;28;20026;-88
2022/05/18 06:17:33;;;;;;;18.85;3.65;;;;;;;14.25;88.12;100581.38;4999408;28;20069;-88
2022/05/18 06:19:58;;;;;;;20.33;2.97;;;;;;;13.40;91.03;100593.50;5021926;28;20037;-86
2022/05/18 06:22:25;;;;;;;23.10;3.45;;;;;;;12.88;94.10;100597.44;5004493;28;20029;-86
2022/05/18 06:24:54;;;;;;;7.70;2.22;;;;;;;13.35;93.08;100601.34;5006184;28;20507;-88
2022/05/18 06:27:26;;;;;;;15.60;2.60;;;;;;;14.39;88.52;100598.47;4992274;28;20046;-87
2022/05/18 06:29:55;;;;;;;;;;;;;;;15.22;86.37;100602.72;4992074;28;20030;-86
2022/05/18 06:32:21;;;;;;;20.08;3.00;;;;;;;15.78;82.64;100604.94;5016230;28;19914;-87
2022/05/18 06:34:48;;;;;;;17.10;4.28;;;;;;;16.04;78.85;100607.53;4992749;28;20915;-86
2022/05/18 06:37:14;;;;;;;25.13;3.80;;;;;;;16.46;78.99;100604.41;4998037;28;20033;-86
2022/05/18 06:39:40;;;;;;;15.45;3.15;;;;;;;16.85;78.42;100610.63;5017398;28;20101;-86
2022/05/18 06:42:12;;;;;;;19.30;3.60;;;;;;;17.01;76.81;100609.22;4995593;28;20036;-84
2022/05/18 06:44:41;;;;;;;23.98;3.15;;;;;;;17.13;75.97;100615.63;5000396;28;20018;-87
2022/05/18 06:47:07;;;;;;;22.50;3.28;;;;;;;17.23;76.30;100604.25;5011044;28;20030;-85
2022/05/18 06:49:33;;;;;;;13.30;2.80;;;;;;;17.31;75.93;100610.22;4999438;28;20056;-83
2022/05/18 06:51:59;;;;;;;18.33;2.78;;;;;;;17.17;75.24;100599.69;4993286;28;20025;-85
2022/05/18 06:54:24;;;;;;;17.25;3.58;;;;;;;17.73;71.65;100601.41;5003814;28;20037;-85
2022/05/18 06:56:50;;;;;;;16.42;3.92;;;;;;;18.11;74.04;100594.91;5014304;28;20367;-88
2022/05/18 06:59:16;;;;;;;21.45;3.35;;;;;;;18.15;73.85;100599.69;4971113;28;20038;-85
2022/05/18 07:01:52;;;;;;;21.48;4.57;;;;;;;18.44;73.08;100592.56;4983743;28;20377;-87
2022/05/18 07:04:18;;;;;;;12.98;2.88;;;;;;;18.28;72.72;100604.09;5015976;28;20026;-87
2022/05/18 07:06:45;;;;;;;10.55;3.65;;;;;;;17.46;75.76;100590.00;4992030;28;20033;-85
2022/05/18 07:09:16;;;;;;;24.13;5.55;;;;;;;16.74;77.87;100595.00;5008620;28;20045;-87
2022/05/18 07:11:42;;;;;;;19.42;4.72;;;;;;;16.44;81.57;100590.22;5021038;28;20456;-86
2022/05/18 07:14:08;;;;;;;17.05;4.03;;;;;;;16.59;79.81;100593.44;5010952;28;20511;-87
2022/05/18 07:16:34;;;;;;;23.55;5.13;;;;;;;15.49;84.73;100579.13;4994657;28;20133;-86
2022/05/18 07:19:00;;;;;;;14.77;3.90;;;;;;;14.94;87.86;100593.78;5022853;28;20080;-89
2022/05/18 07:21:26;;;;;;;35.92;10.68;;;;;;;14.39;90.68;100557.91;5006649;28;20037;-89
2022/05/18 07:23:53;;;;;;;44.95;15.35;;;;;;;14.36;91.20;100554.78;5001482;28;20384;-86
2022/05/18 07:26:24;;;;;;;23.88;6.20;;;;;;;14.30;92.37;100573.50;5004377;28;20050;-83
2022/05/18 07:28:52;;;;;;;25.88;6.88;;;;;;;14.16;93.11;100557.47;5011977;28;20080;-87
2022/05/18 07:31:19;;;;;;;20.70;5.68;;;;;;;14.57;92.28;100568.16;5016058;28;20026;-85
2022/05/18 07:33:47;;;;;;;23.67;5.82;;;;;;;15.07;89.07;100568.56;5011035;28;20029;-87
2022/05/18 07:36:14;;;;;;;21.30;4.75;;;;;;;15.58;87.78;100572.41;5004034;28;20531;-87
2022/05/18 07:38:40;;;;;;;23.90;4.05;;;;;;;15.41;85.14;100563.94;5000280;28;20038;-87
2022/05/18 07:41:08;;;;;;;23.23;4.55;;;;;;;15.17;87.88;100557.31;4989537;28;20041;-88
2022/05/18 07:43:34;;;;;;;19.67;4.57;;;;;;;15.07;89.27;100559.63;5025046;28;20056;-85
2022/05/18 07:46:00;;;;;;;16.77;4.32;;;;;;;15.03;89.36;100559.22;5001008;28;20099;-86
2022/05/18 07:48:27;;;;;;;24.88;4.10;;;;;;;15.12;89.62;100546.28;5010287;28;20689;-87
2022/05/18 07:50:52;;;;;;;19.23;4.57;;;;;;;15.87;87.03;100559.41;5005266;28;20068;-88
2022/05/18 07:53:19;;;;;;;20.60;3.55;;;;;;;16.24;84.14;100555.03;5006422;28;20030;-86
2022/05/18 07:55:45;;;;;;;21.52;4.05;;;;;;;17.17;81.29;100534.47;4979144;28;20451;-87
2022/05/18 07:58:13;;;;;;;19.95;3.85;;;;;;;18.09;76.31;100539.88;5002419;28;20048;-85
2022/05/18 08:00:39;;;;;;;18.60;4.05;;;;;;;19.10;75.77;100540.81;5004786;28;20495;-88
2022/05/18 08:03:07;;;;;;;25.83;4.10;;;;;;;20.37;69.94;100530.84;5008580;28;20073;-89
2022/05/18 08:05:33;;;;;;;17.20;3.83;;;;;;;20.63;66.63;100535.69;5004820;28;20053;-87
2022/05/18 08:08:04;;;;;;;17.15;3.65;;;;;;;19.19;65.90;100535.84;5025610;28;20387;-87
2022/05/18 08:15:58;;;;;;;23.55;5.72;;;;;;;15.12;81.52;100527.31;4994336;28;20498;-82
2022/05/18 08:18:23;;;;;;;24.58;6.18;;;;;;;14.79;81.43;100503.84;5010009;28;20109;-85
2022/05/18 08:20:49;;;;;;;31.90;9.98;;;;;;;14.79;81.03;100509.25;4986583;28;20026;-85
2022/05/18 08:23:15;;;;;;;29.40;9.55;;;;;;;15.03;78.76;100509.63;5005861;28;20118;-84
2022/05/18 08:25:43;;;;;;;22.92;6.30;;;;;;;15.46;75.36;100493.69;5002899;28;20372;-84
2022/05/18 08:28:09;;;;;;;17.17;3.90;;;;;;;15.83;72.21;100502.91;5010225;28;20087;-84
2022/05/18 08:30:35;;;;;;;20.27;5.85;;;;;;;17.68;67.16;100498.78;5011665;28;20109;-82
2022/05/18 08:33:02;;;;;;;13.15;3.28;;;;;;;19.51;56.82;100492.63;5006594;28;20046;-83
2022/05/18 08:35:29;;;;;;;19.95;5.38;;;;;;;21.57;51.00;100492.25;5008172;28;20025;-84
2022/05/18 08:37:55;;;;;;;19.67;4.90;;;;;;;22.63;46.81;100485.38;5004191;28;20033;-85
2022/05/18 08:40:20;;;;;;;17.83;3.75;;;;;;;22.86;44.91;100481.41;4999277;28;20068;-81
2022/05/18 08:42:46;;;;;;;18.77;5.35;;;;;;;22.64;43.84;100474.13;5022525;28;20052;-83
2022/05/18 08:45:11;;;;;;;16.27;3.88;;;;;;;24.21;41.96;100472.34;5006435;28;20049;-80
2022/05/18 08:47:51;;;;;;;16.38;4.20;;;;;;;25.35;39.47;100479.38;5000516;28;20387;-80
2022/05/18 08:50:19;;;;;;;13.65;3.88;;;;;;;25.69;38.44;100474.00;5017232;28;20120;-82
2022/05/18 08:53:12;;;;;;;11.13;3.13;;;;;;;25.45;36.81;100460.88;4991101;28;20044;-82
2022/05/18 08:55:44;;;;;;;12.13;2.90;;;;;;;25.26;37.48;100479.13;5006746;28;20519;-85
2022/05/18 08:58:25;;;;;;;15.80;3.05;;;;;;;25.74;37.38;100456.63;5006298;28;20034;-79
2022/05/18 09:00:58;;;;;;;14.43;3.13;;;;;;;25.45;36.39;100477.41;4976375;28;20037;-83
2022/05/18 09:03:31;;;;;;;;;;;;;;;22.61;41.15;100472.75;4994025;28;20037;-79
2022/05/18 09:06:01;;;;;;;18.73;2.75;;;;;;;23.18;41.89;100465.72;5022055;28;19925;-82
2022/05/18 09:08:35;;;;;;;13.77;3.20;;;;;;;22.95;42.44;100474.34;5003580;28;20040;-83
2022/05/18 09:11:06;;;;;;;11.45;3.30;;;;;;;21.27;45.38;100460.66;4999457;28;20044;-80
2022/05/18 09:13:50;;;;;;;11.82;2.92;;;;;;;19.65;48.23;100455.00;5007225;28;20950;-80
2022/05/18 09:16:38;;;;;;;12.23;2.30;;;;;;;18.61;50.20;100455.75;4993374;28;20908;-80
2022/05/18 09:19:22;;;;;;;12.75;3.17;;;;;;;20.19;47.27;100450.84;4994504;28;20064;-81
2022/05/18 09:22:02;;;;;;;11.55;2.97;;;;;;;20.07;47.80;100451.97;5000398;28;20034;-83
2022/05/18 09:25:10;;;;;;;11.60;2.63;;;;;;;20.70;48.05;100460.97;4999680;28;20025;-81
2022/05/18 09:28:00;;;;;;;18.00;3.05;;;;;;;21.48;45.09;100462.56;4999089;28;20038;-82
2022/05/18 09:30:51;;;;;;;12.25;3.20;;;;;;;22.60;42.22;100462.06;4975245;28;20121;-83
2022/05/18 09:33:36;;;;;;;15.38;3.22;;;;;;;22.38;41.53;100451.19;4980721;28;20080;-82
2022/05/18 09:36:33;;;;;;;20.60;6.68;;;;;;;22.14;41.44;100469.84;4964598;28;20044;-81
2022/05/18 09:39:13;;;;;;;13.43;5.25;;;;;;;22.42;40.28;100457.00;4974842;28;20034;-83
2022/05/18 09:41:47;;;;;;;10.75;3.38;;;;;;;20.99;42.10;100459.75;4963293;28;20032;-82
2022/05/18 09:44:28;;;;;;;12.38;4.45;;;;;;;21.88;41.88;100442.22;4996598;28;20033;-83
2022/05/18 09:46:55;;;;;;;10.50;4.35;;;;;;;21.94;41.97;100437.66;5015069;28;20054;-84
2022/05/18 09:49:38;;;;;;;11.10;2.67;;;;;;;21.47;42.50;100440.97;4991181;28;20041;-81
2022/05/18 09:52:05;;;;;;;10.30;2.65;;;;;;;21.86;40.66;100430.72;4988428;28;20030;-87
2022/05/18 09:54:32;;;;;;;7.18;2.25;;;;;;;21.68;40.91;100428.34;5006348;28;20029;-83
2022/05/18 09:57:11;;;;;;;14.85;3.97;;;;;;;22.60;39.84;100429.19;4985845;28;20395;-82
2022/05/18 09:59:44;;;;;;;11.77;2.83;;;;;;;23.37;37.61;100424.13;5021958;28;20068;-82
2022/05/18 10:07:54;;;;;;;10.82;2.80;;;;;;;21.02;42.01;100417.41;5021356;28;20037;-83
2022/05/18 10:10:20;;;;;;;9.38;2.58;;;;;;;19.54;45.36;100429.44;5006751;28;20116;-80
2022/05/18 10:12:53;;;;;;;13.73;2.90;;;;;;;19.48;46.65;100420.31;5004608;28;20038;-84
2022/05/18 10:15:35;;;;;;;14.27;2.55;;;;;;;19.55;46.71;100423.75;5017559;28;20033;-82
2022/05/18 10:18:28;;;;;;;13.55;2.75;;;;;;;19.25;48.28;100413.03;4998333;28;20384;-83
2022/05/18 10:21:13;;;;;;;7.15;3.00;;;;;;;19.38;46.37;100402.94;5006709;28;20061;-84
2022/05/18 10:23:51;;;;;;;15.90;4.43;;;;;;;18.89;47.69;100384.22;5016909;28;20041;-83
2022/05/18 10:26:40;;;;;;;17.25;3.05;;;;;;;19.18;48.05;100387.00;5008769;28;20080;-82
2022/05/18 10:29:08;;;;;;;17.52;5.57;;;;;;;20.20;46.37;100376.06;5007153;28;20037;-83
2022/05/18 10:31:42;;;;;;;12.23;2.67;;;;;;;19.79;46.33;100371.81;4991789;28;20475;-81
2022/05/18 10:34:29;;;;;;;14.65;3.47;;;;;;;19.62;46.65;100366.31;4992466;28;20033;-83
2022/05/18 10:36:57;;;;;;;13.30;2.95;;;;;;;19.98;45.60;100384.16;5009753;28;20038;-84
2022/05/18 10:39:38;;;;;;;11.75;3.13;;;;;;;21.72;42.35;100383.78;5002531;28;20404;-84
2022/05/18 10:42:25;;;;;;;9.88;2.40;;;;;;;22.21;40.56;100350.00;5002451;28;20034;-82
2022/05/18 10:44:56;;;;;;;7.82;2.10;;;;;;;23.23;39.71;100350.56;5001935;28;20430;-82
2022/05/18 10:47:26;;;;;;;9.20;3.45;;;;;;;24.14;37.65;100346.28;4986343;28;20062;-83
2022/05/18 10:50:13;;;;;;;10.25;3.10;;;;;;;24.98;36.81;100354.88;5027541;28;20030;-80
2022/05/18 10:52:38;;;;;;;9.40;2.80;;;;;;;25.23;35.77;100364.97;5006376;28;20475;-88
2022/05/18 10:55:14;;;;;;;13.50;4.15;;;;;;;24.18;35.92;100310.00;5007669;28;20087;-86
2022/05/18 10:57:51;;;;;;;12.23;3.58;;;;;;;23.20;39.92;100348.31;5002614;28;20505;-87
2022/05/18 11:00:20;;;;;;;9.45;2.42;;;;;;;21.59;42.02;100348.63;4991835;28;20480;-86
2022/05/18 11:03:15;;;;;;;12.15;2.95;;;;;;;20.17;46.15;100351.16;5013375;28;20494;-85
2022/05/18 11:05:52;;;;;;;13.45;3.53;;;;;;;19.00;50.11;100336.22;4990313;28;20022;-81
2022/05/18 11:08:21;;;;;;;13.20;2.70;;;;;;;18.23;54.79;100361.75;5004162;28;20030;-84
2022/05/18 11:10:58;;;;;;;11.48;2.78;;;;;;;17.63;59.10;100359.16;5004019;28;20117;-86
2022/05/18 11:14:00;;;;;;;9.70;2.78;;;;;;;17.79;61.26;100350.34;5028154;28;20029;-84
2022/05/18 11:16:50;;;;;;;10.52;3.72;;;;;;;18.69;61.36;100360.06;5026224;28;20040;-84
2022/05/18 11:19:30;;;;;;;16.13;4.90;;;;;;;18.10;62.02;100342.91;5012738;28;20034;-85
2022/05/18 11:22:18;;;;;;;11.85;3.42;;;;;;;17.95;61.83;100337.97;5040798;28;20017;-80
2022/05/18 11:25:00;;;;;;;11.15;5.05;;;;;;;18.68;60.92;100333.88;5017412;28;20041;-80
2022/05/18 11:27:50;;;;;;;13.85;3.90;;;;;;;19.08;58.00;100331.22;5032776;28;20073;-79
2022/05/18 11:30:28;;;;;;;11.95;3.97;;;;;;;19.69;55.66;100337.00;5032768;28;20041;-82
2022/05/18 11:33:12;;;;;;;12.65;5.57;;;;;;;19.87;54.84;100332.38;5016402;28;20080;-88
2022/05/18 11:35:47;;;;;;;15.55;3.78;;;;;;;20.21;53.28;100311.34;5025952;28;20049;-85
2022/05/18 11:38:48;;;;;;;11.85;3.20;;;;;;;20.68;50.89;100307.41;5028200;28;20488;-85
2022/05/18 11:41:22;;;;;;;17.90;3.63;;;;;;;21.10;50.56;100304.06;5026252;28;20375;-85
2022/05/18 11:44:23;;;;;;;7.07;3.13;;;;;;;21.50;47.96;100288.09;5025560;28;20061;-80
2022/05/18 11:47:18;;;;;;;11.77;2.95;;;;;;;21.49;46.45;100278.25;4995839;28;20038;-81
2022/05/18 11:50:07;;;;;;;15.70;3.65;;;;;;;21.80;46.94;100273.00;4989283;28;20407;-83